sensor_id;sensor_type;location;lat;lon;timestamp;P1;durP1;ratioP1;P2;durP2;ratioP2
65656;SDS011;57397;50.096;14.404;2023-07-29T00:00:40;3.33;;;1.40;;
65656;SDS011;57397;50.096;14.404;2023-07-29T00:03:05;3.38;;;1.40;;
65656;SDS011;57397;50.096;14.404;2023-07-29T00:05:31;1.60;;;1.20;;
65656;SDS011;57397;50.096;14.404;2023-07-29T00:07:56;2.10;;;1.20;;
65656;SDS011;57397;50.096;14.404;2023-07-29T00:10:22;1.90;;;1.40;;
65656;SDS011;57397;50.096;14.404;2023-07-29T00:12:48;1.77;;;1.30;;
65656;SDS011;57397;50.096;14.404;2023-07-29T00:15:13;4.32;;;1.50;;
65656;SDS011;57397;50.096;14.404;2023-07-29T00:17:39;2.28;;;1.40;;
65656;SDS011;57397;50.096;14.404;2023-07-29T00:20:05;1.70;;;1.20;;
65656;SDS011;57397;50.096;14.404;2023-07-29T00:22:31;2.53;;;1.40;;
65656;SDS011;57397;50.096;14.404;2023-07-29T00:24:56;1.55;;;1.23;;
65656;SDS011;57397;50.096;14.404;2023-07-29T00:27:23;1.40;;;1.20;;
65656;SDS011;57397;50.096;14.404;2023-07-29T00:29:49;1.70;;;1.20;;
65656;SDS011;57397;50.096;14.404;2023-07-29T00:32:14;1.40;;;1.10;;
65656;SDS011;57397;50.096;14.404;2023-07-29T00:34:40;1.52;;;1.27;;
65656;SDS011;57397;50.096;14.404;2023-07-29T00:37:05;2.25;;;1.40;;
65656;SDS011;57397;50.096;14.404;2023-07-29T00:39:31;3.45;;;1.40;;
65656;SDS011;57397;50.096;14.404;2023-07-29T00:41:57;1.80;;;1.20;;
65656;SDS011;57397;50.096;14.404;2023-07-29T00:44:23;3.58;;;1.20;;
65656;SDS011;57397;50.096;14.404;2023-07-29T00:46:52;6.13;;;1.30;;
65656;SDS011;57397;50.096;14.404;2023-07-29T00:49:18;3.63;;;1.30;;
65656;SDS011;57397;50.096;14.404;2023-07-29T00:51:44;1.30;;;1.00;;
65656;SDS011;57397;50.096;14.404;2023-07-29T00:54:10;5.60;;;1.58;;
65656;SDS011;57397;50.096;14.404;2023-07-29T00:56:35;2.20;;;1.20;;
65656;SDS011;57397;50.096;14.404;2023-07-29T00:59:01;2.15;;;1.30;;
65656;SDS011;57397;50.096;14.404;2023-07-29T01:01:27;1.63;;;1.30;;
65656;SDS011;57397;50.096;14.404;2023-07-29T01:03:54;2.00;;;1.20;;
65656;SDS011;57397;50.096;14.404;2023-07-29T01:08:57;4.93;;;1.45;;
65656;SDS011;57397;50.096;14.404;2023-07-29T01:11:31;2.03;;;1.20;;
65656;SDS011;57397;50.096;14.404;2023-07-29T01:14:05;2.27;;;1.20;;
65656;SDS011;57397;50.096;14.404;2023-07-29T01:16:38;1.73;;;1.20;;
65656;SDS011;57397;50.096;14.404;2023-07-29T01:19:06;2.30;;;1.25;;
65656;SDS011;57397;50.096;14.404;2023-07-29T01:21:35;2.05;;;1.15;;
65656;SDS011;57397;50.096;14.404;2023-07-29T01:24:01;3.15;;;1.20;;
65656;SDS011;57397;50.096;14.404;2023-07-29T01:26:27;2.28;;;1.10;;
65656;SDS011;57397;50.096;14.404;2023-07-29T01:28:54;1.40;;;1.08;;
65656;SDS011;57397;50.096;14.404;2023-07-29T01:31:55;1.80;;;1.10;;
65656;SDS011;57397;50.096;14.404;2023-07-29T01:34:17;1.60;;;1.17;;
65656;SDS011;57397;50.096;14.404;2023-07-29T01:36:45;1.67;;;0.95;;
65656;SDS011;57397;50.096;14.404;2023-07-29T01:39:12;1.90;;;1.23;;
65656;SDS011;57397;50.096;14.404;2023-07-29T01:41:37;4.45;;;1.10;;
65656;SDS011;57397;50.096;14.404;2023-07-29T01:44:03;2.58;;;0.90;;
65656;SDS011;57397;50.096;14.404;2023-07-29T01:46:29;2.30;;;1.10;;
65656;SDS011;57397;50.096;14.404;2023-07-29T01:48:58;3.53;;;1.02;;
65656;SDS011;57397;50.096;14.404;2023-07-29T01:51:24;1.48;;;1.00;;
65656;SDS011;57397;50.096;14.404;2023-07-29T01:53:49;1.40;;;1.00;;
65656;SDS011;57397;50.096;14.404;2023-07-29T01:56:15;1.48;;;0.88;;
65656;SDS011;57397;50.096;14.404;2023-07-29T01:58:40;1.23;;;1.00;;
65656;SDS011;57397;50.096;14.404;2023-07-29T02:01:05;2.30;;;1.10;;
65656;SDS011;57397;50.096;14.404;2023-07-29T02:03:31;1.40;;;1.00;;
65656;SDS011;57397;50.096;14.404;2023-07-29T02:05:59;3.17;;;1.30;;
65656;SDS011;57397;50.096;14.404;2023-07-29T02:08:25;1.20;;;1.10;;
65656;SDS011;57397;50.096;14.404;2023-07-29T02:10:50;1.95;;;1.10;;
65656;SDS011;57397;50.096;14.404;2023-07-29T02:13:16;3.25;;;0.93;;
65656;SDS011;57397;50.096;14.404;2023-07-29T02:15:41;2.08;;;1.10;;
65656;SDS011;57397;50.096;14.404;2023-07-29T02:18:07;2.03;;;1.02;;
65656;SDS011;57397;50.096;14.404;2023-07-29T02:20:32;2.95;;;1.10;;
65656;SDS011;57397;50.096;14.404;2023-07-29T02:22:58;2.15;;;1.05;;
65656;SDS011;57397;50.096;14.404;2023-07-29T02:25:23;2.20;;;1.10;;
65656;SDS011;57397;50.096;14.404;2023-07-29T02:27:49;2.40;;;1.00;;
65656;SDS011;57397;50.096;14.404;2023-07-29T02:30:14;1.52;;;1.00;;
65656;SDS011;57397;50.096;14.404;2023-07-29T02:32:40;1.25;;;1.08;;
65656;SDS011;57397;50.096;14.404;2023-07-29T02:35:06;1.55;;;1.10;;
65656;SDS011;57397;50.096;14.404;2023-07-29T02:37:31;2.03;;;1.20;;
65656;SDS011;57397;50.096;14.404;2023-07-29T02:39:57;1.55;;;0.98;;
65656;SDS011;57397;50.096;14.404;2023-07-29T02:42:22;1.75;;;1.20;;
65656;SDS011;57397;50.096;14.404;2023-07-29T02:44:48;1.40;;;1.20;;
65656;SDS011;57397;50.096;14.404;2023-07-29T02:47:16;2.45;;;1.30;;
65656;SDS011;57397;50.096;14.404;2023-07-29T02:49:42;2.03;;;1.10;;
65656;SDS011;57397;50.096;14.404;2023-07-29T02:52:07;1.60;;;1.10;;
65656;SDS011;57397;50.096;14.404;2023-07-29T02:54:33;1.40;;;1.10;;
65656;SDS011;57397;50.096;14.404;2023-07-29T02:56:58;1.50;;;1.20;;
65656;SDS011;57397;50.096;14.404;2023-07-29T02:59:24;1.85;;;1.17;;
65656;SDS011;57397;50.096;14.404;2023-07-29T03:01:49;2.17;;;1.00;;
65656;SDS011;57397;50.096;14.404;2023-07-29T03:04:15;2.25;;;1.20;;
65656;SDS011;57397;50.096;14.404;2023-07-29T03:06:40;2.47;;;1.10;;
65656;SDS011;57397;50.096;14.404;2023-07-29T03:09:06;1.48;;;1.33;;
65656;SDS011;57397;50.096;14.404;2023-07-29T03:11:31;1.52;;;1.00;;
65656;SDS011;57397;50.096;14.404;2023-07-29T03:13:57;2.05;;;1.30;;
65656;SDS011;57397;50.096;14.404;2023-07-29T03:16:22;1.33;;;1.15;;
65656;SDS011;57397;50.096;14.404;2023-07-29T03:18:48;1.45;;;1.15;;
65656;SDS011;57397;50.096;14.404;2023-07-29T03:21:14;2.05;;;1.15;;
65656;SDS011;57397;50.096;14.404;2023-07-29T03:23:40;2.40;;;1.38;;
65656;SDS011;57397;50.096;14.404;2023-07-29T03:26:05;1.65;;;1.20;;
65656;SDS011;57397;50.096;14.404;2023-07-29T03:28:36;2.28;;;1.30;;
65656;SDS011;57397;50.096;14.404;2023-07-29T03:31:03;2.25;;;1.23;;
65656;SDS011;57397;50.096;14.404;2023-07-29T03:33:28;1.70;;;1.20;;
65656;SDS011;57397;50.096;14.404;2023-07-29T03:35:54;1.63;;;1.30;;
65656;SDS011;57397;50.096;14.404;2023-07-29T03:38:20;2.42;;;1.30;;
65656;SDS011;57397;50.096;14.404;2023-07-29T03:40:46;2.92;;;1.30;;
65656;SDS011;57397;50.096;14.404;2023-07-29T03:43:11;2.70;;;1.35;;
65656;SDS011;57397;50.096;14.404;2023-07-29T03:45:37;3.60;;;1.50;;
65656;SDS011;57397;50.096;14.404;2023-07-29T03:48:03;2.95;;;1.35;;
65656;SDS011;57397;50.096;14.404;2023-07-29T03:50:29;1.75;;;1.20;;
65656;SDS011;57397;50.096;14.404;2023-07-29T03:52:55;1.98;;;1.20;;
65656;SDS011;57397;50.096;14.404;2023-07-29T03:55:21;1.10;;;1.00;;
65656;SDS011;57397;50.096;14.404;2023-07-29T03:57:47;1.33;;;1.17;;
65656;SDS011;57397;50.096;14.404;2023-07-29T04:00:12;2.00;;;1.25;;
65656;SDS011;57397;50.096;14.404;2023-07-29T04:02:38;2.30;;;1.30;;
65656;SDS011;57397;50.096;14.404;2023-07-29T04:05:04;2.22;;;1.10;;
65656;SDS011;57397;50.096;14.404;2023-07-29T04:07:30;1.20;;;1.10;;
65656;SDS011;57397;50.096;14.404;2023-07-29T04:09:56;1.52;;;1.13;;
65656;SDS011;57397;50.096;14.404;2023-07-29T04:12:22;2.33;;;1.10;;
65656;SDS011;57397;50.096;14.404;2023-07-29T04:14:48;1.80;;;1.35;;
65656;SDS011;57397;50.096;14.404;2023-07-29T04:17:13;2.65;;;1.10;;
65656;SDS011;57397;50.096;14.404;2023-07-29T04:19:39;2.55;;;1.27;;
65656;SDS011;57397;50.096;14.404;2023-07-29T04:22:04;2.05;;;1.23;;
65656;SDS011;57397;50.096;14.404;2023-07-29T04:24:30;1.83;;;1.23;;
65656;SDS011;57397;50.096;14.404;2023-07-29T04:26:55;2.83;;;1.20;;
65656;SDS011;57397;50.096;14.404;2023-07-29T04:29:21;1.70;;;1.10;;
65656;SDS011;57397;50.096;14.404;2023-07-29T04:31:48;1.35;;;1.20;;
65656;SDS011;57397;50.096;14.404;2023-07-29T04:34:17;2.28;;;1.13;;
65656;SDS011;57397;50.096;14.404;2023-07-29T04:36:43;2.58;;;1.10;;
65656;SDS011;57397;50.096;14.404;2023-07-29T04:39:08;1.85;;;1.30;;
65656;SDS011;57397;50.096;14.404;2023-07-29T04:41:34;2.08;;;1.10;;
65656;SDS011;57397;50.096;14.404;2023-07-29T04:44:00;2.17;;;1.30;;
65656;SDS011;57397;50.096;14.404;2023-07-29T04:46:25;1.73;;;1.20;;
65656;SDS011;57397;50.096;14.404;2023-07-29T04:48:51;1.80;;;1.02;;
65656;SDS011;57397;50.096;14.404;2023-07-29T04:51:16;2.58;;;1.40;;
65656;SDS011;57397;50.096;14.404;2023-07-29T04:53:41;1.95;;;1.20;;
65656;SDS011;57397;50.096;14.404;2023-07-29T04:56:07;1.95;;;1.17;;
65656;SDS011;57397;50.096;14.404;2023-07-29T04:58:33;1.48;;;1.10;;
65656;SDS011;57397;50.096;14.404;2023-07-29T05:01:01;3.38;;;1.30;;
65656;SDS011;57397;50.096;14.404;2023-07-29T05:03:27;2.67;;;1.10;;
65656;SDS011;57397;50.096;14.404;2023-07-29T05:05:53;1.70;;;1.33;;
65656;SDS011;57397;50.096;14.404;2023-07-29T05:08:21;1.30;;;1.10;;
65656;SDS011;57397;50.096;14.404;2023-07-29T05:10:50;2.75;;;1.17;;
65656;SDS011;57397;50.096;14.404;2023-07-29T05:13:16;1.63;;;1.15;;
65656;SDS011;57397;50.096;14.404;2023-07-29T05:15:42;1.60;;;1.40;;
65656;SDS011;57397;50.096;14.404;2023-07-29T05:18:08;2.05;;;1.25;;
65656;SDS011;57397;50.096;14.404;2023-07-29T05:20:33;1.60;;;1.25;;
65656;SDS011;57397;50.096;14.404;2023-07-29T05:22:59;1.60;;;1.20;;
65656;SDS011;57397;50.096;14.404;2023-07-29T05:25:25;1.70;;;1.30;;
65656;SDS011;57397;50.096;14.404;2023-07-29T05:27:51;2.47;;;1.20;;
65656;SDS011;57397;50.096;14.404;2023-07-29T05:30:16;2.03;;;1.48;;
65656;SDS011;57397;50.096;14.404;2023-07-29T05:32:42;1.90;;;1.40;;
65656;SDS011;57397;50.096;14.404;2023-07-29T05:35:07;3.05;;;1.20;;
65656;SDS011;57397;50.096;14.404;2023-07-29T05:37:33;1.58;;;1.17;;
65656;SDS011;57397;50.096;14.404;2023-07-29T05:39:59;3.45;;;1.40;;
65656;SDS011;57397;50.096;14.404;2023-07-29T05:42:24;2.50;;;1.20;;
65656;SDS011;57397;50.096;14.404;2023-07-29T05:44:50;4.10;;;1.30;;
65656;SDS011;57397;50.096;14.404;2023-07-29T05:47:15;2.38;;;1.38;;
65656;SDS011;57397;50.096;14.404;2023-07-29T05:49:41;2.47;;;1.33;;
65656;SDS011;57397;50.096;14.404;2023-07-29T05:52:06;1.38;;;1.15;;
65656;SDS011;57397;50.096;14.404;2023-07-29T05:54:32;2.25;;;1.35;;
65656;SDS011;57397;50.096;14.404;2023-07-29T05:56:58;1.90;;;1.30;;
65656;SDS011;57397;50.096;14.404;2023-07-29T05:59:23;2.10;;;1.25;;
65656;SDS011;57397;50.096;14.404;2023-07-29T06:01:49;1.58;;;1.23;;
65656;SDS011;57397;50.096;14.404;2023-07-29T06:04:14;2.10;;;1.27;;
65656;SDS011;57397;50.096;14.404;2023-07-29T06:06:39;3.38;;;1.40;;
65656;SDS011;57397;50.096;14.404;2023-07-29T06:09:05;1.65;;;1.25;;
65656;SDS011;57397;50.096;14.404;2023-07-29T06:11:30;3.53;;;1.48;;
65656;SDS011;57397;50.096;14.404;2023-07-29T06:13:58;3.80;;;1.42;;
65656;SDS011;57397;50.096;14.404;2023-07-29T06:16:23;1.85;;;1.20;;
65656;SDS011;57397;50.096;14.404;2023-07-29T06:18:49;2.03;;;1.23;;
65656;SDS011;57397;50.096;14.404;2023-07-29T06:21:14;1.65;;;1.40;;
65656;SDS011;57397;50.096;14.404;2023-07-29T06:23:45;2.20;;;1.33;;
65656;SDS011;57397;50.096;14.404;2023-07-29T06:26:12;2.10;;;1.40;;
65656;SDS011;57397;50.096;14.404;2023-07-29T06:28:39;1.90;;;1.45;;
65656;SDS011;57397;50.096;14.404;2023-07-29T06:31:05;2.90;;;1.52;;
65656;SDS011;57397;50.096;14.404;2023-07-29T06:33:31;1.77;;;1.40;;
65656;SDS011;57397;50.096;14.404;2023-07-29T06:35:58;3.33;;;1.50;;
65656;SDS011;57397;50.096;14.404;2023-07-29T06:38:24;2.15;;;1.30;;
65656;SDS011;57397;50.096;14.404;2023-07-29T06:40:49;1.77;;;1.38;;
65656;SDS011;57397;50.096;14.404;2023-07-29T06:43:17;1.58;;;1.10;;
65656;SDS011;57397;50.096;14.404;2023-07-29T06:45:43;3.53;;;1.10;;
65656;SDS011;57397;50.096;14.404;2023-07-29T06:48:09;1.85;;;1.30;;
65656;SDS011;57397;50.096;14.404;2023-07-29T06:50:34;1.40;;;1.20;;
65656;SDS011;57397;50.096;14.404;2023-07-29T06:53:00;1.48;;;1.25;;
65656;SDS011;57397;50.096;14.404;2023-07-29T06:55:25;2.58;;;1.00;;
65656;SDS011;57397;50.096;14.404;2023-07-29T06:57:51;2.95;;;1.20;;
65656;SDS011;57397;50.096;14.404;2023-07-29T07:00:17;3.78;;;1.30;;
65656;SDS011;57397;50.096;14.404;2023-07-29T07:02:44;2.85;;;1.60;;
65656;SDS011;57397;50.096;14.404;2023-07-29T07:05:09;2.78;;;1.15;;
65656;SDS011;57397;50.096;14.404;2023-07-29T07:07:36;2.00;;;1.17;;
65656;SDS011;57397;50.096;14.404;2023-07-29T07:10:03;5.38;;;1.40;;
65656;SDS011;57397;50.096;14.404;2023-07-29T07:12:28;1.27;;;1.00;;
65656;SDS011;57397;50.096;14.404;2023-07-29T07:14:54;1.40;;;1.10;;
65656;SDS011;57397;50.096;14.404;2023-07-29T07:17:19;2.40;;;1.27;;
65656;SDS011;57397;50.096;14.404;2023-07-29T07:19:45;1.80;;;1.05;;
65656;SDS011;57397;50.096;14.404;2023-07-29T07:22:11;1.60;;;1.50;;
65656;SDS011;57397;50.096;14.404;2023-07-29T07:24:37;2.03;;;1.35;;
65656;SDS011;57397;50.096;14.404;2023-07-29T07:27:02;2.38;;;1.10;;
65656;SDS011;57397;50.096;14.404;2023-07-29T07:29:28;3.13;;;1.30;;
65656;SDS011;57397;50.096;14.404;2023-07-29T07:31:55;1.10;;;1.00;;
65656;SDS011;57397;50.096;14.404;2023-07-29T07:34:21;1.40;;;1.08;;
65656;SDS011;57397;50.096;14.404;2023-07-29T07:36:47;1.98;;;1.00;;
65656;SDS011;57397;50.096;14.404;2023-07-29T07:39:12;1.23;;;1.10;;
65656;SDS011;57397;50.096;14.404;2023-07-29T07:41:38;1.35;;;1.10;;
65656;SDS011;57397;50.096;14.404;2023-07-29T07:44:04;1.60;;;1.50;;
65656;SDS011;57397;50.096;14.404;2023-07-29T07:46:29;2.28;;;2.00;;
65656;SDS011;57397;50.096;14.404;2023-07-29T07:48:55;4.10;;;2.17;;
65656;SDS011;57397;50.096;14.404;2023-07-29T07:51:20;2.75;;;1.77;;
65656;SDS011;57397;50.096;14.404;2023-07-29T07:53:46;2.92;;;1.55;;
65656;SDS011;57397;50.096;14.404;2023-07-29T07:56:11;1.83;;;1.50;;
65656;SDS011;57397;50.096;14.404;2023-07-29T07:58:37;1.80;;;1.50;;
65656;SDS011;57397;50.096;14.404;2023-07-29T08:01:04;2.97;;;1.33;;
65656;SDS011;57397;50.096;14.404;2023-07-29T08:03:30;2.30;;;1.40;;
65656;SDS011;57397;50.096;14.404;2023-07-29T08:05:56;1.75;;;1.20;;
65656;SDS011;57397;50.096;14.404;2023-07-29T08:08:21;1.98;;;1.15;;
65656;SDS011;57397;50.096;14.404;2023-07-29T08:10:47;1.38;;;1.10;;
65656;SDS011;57397;50.096;14.404;2023-07-29T08:13:15;3.22;;;1.10;;
65656;SDS011;57397;50.096;14.404;2023-07-29T08:15:45;3.08;;;1.30;;
65656;SDS011;57397;50.096;14.404;2023-07-29T08:18:12;1.20;;;1.02;;
65656;SDS011;57397;50.096;14.404;2023-07-29T08:20:37;3.92;;;1.10;;
65656;SDS011;57397;50.096;14.404;2023-07-29T08:23:03;0.90;;;0.90;;
65656;SDS011;57397;50.096;14.404;2023-07-29T08:25:29;2.08;;;1.08;;
65656;SDS011;57397;50.096;14.404;2023-07-29T08:27:54;1.52;;;1.00;;
65656;SDS011;57397;50.096;14.404;2023-07-29T08:30:20;4.60;;;1.10;;
65656;SDS011;57397;50.096;14.404;2023-07-29T08:32:45;2.17;;;1.00;;
65656;SDS011;57397;50.096;14.404;2023-07-29T08:35:11;59.35;;;15.38;;
65656;SDS011;57397;50.096;14.404;2023-07-29T08:37:36;22.65;;;6.30;;
65656;SDS011;57397;50.096;14.404;2023-07-29T08:40:02;29.45;;;7.85;;
65656;SDS011;57397;50.096;14.404;2023-07-29T08:42:29;16.90;;;5.25;;
65656;SDS011;57397;50.096;14.404;2023-07-29T08:44:56;10.00;;;3.60;;
65656;SDS011;57397;50.096;14.404;2023-07-29T08:47:32;9.38;;;3.00;;
65656;SDS011;57397;50.096;14.404;2023-07-29T08:49:58;8.40;;;2.72;;
65656;SDS011;57397;50.096;14.404;2023-07-29T08:52:25;7.07;;;2.25;;
65656;SDS011;57397;50.096;14.404;2023-07-29T08:54:51;7.40;;;1.80;;
65656;SDS011;57397;50.096;14.404;2023-07-29T08:57:17;3.25;;;1.45;;
65656;SDS011;57397;50.096;14.404;2023-07-29T08:59:45;2.25;;;1.30;;
65656;SDS011;57397;50.096;14.404;2023-07-29T09:02:10;5.25;;;1.33;;
65656;SDS011;57397;50.096;14.404;2023-07-29T09:04:36;3.17;;;1.10;;
65656;SDS011;57397;50.096;14.404;2023-07-29T09:07:02;2.67;;;1.27;;
65656;SDS011;57397;50.096;14.404;2023-07-29T09:09:28;2.53;;;1.15;;
65656;SDS011;57397;50.096;14.404;2023-07-29T09:11:53;117.25;;;33.70;;
65656;SDS011;57397;50.096;14.404;2023-07-29T09:14:19;81.30;;;25.75;;
65656;SDS011;57397;50.096;14.404;2023-07-29T09:16:45;115.47;;;34.53;;
65656;SDS011;57397;50.096;14.404;2023-07-29T09:19:11;76.15;;;22.63;;
65656;SDS011;57397;50.096;14.404;2023-07-29T09:21:39;58.78;;;17.48;;
65656;SDS011;57397;50.096;14.404;2023-07-29T09:24:05;43.75;;;12.90;;
65656;SDS011;57397;50.096;14.404;2023-07-29T09:26:32;28.52;;;9.65;;
65656;SDS011;57397;50.096;14.404;2023-07-29T09:28:59;23.75;;;7.28;;
65656;SDS011;57397;50.096;14.404;2023-07-29T09:31:26;17.38;;;5.63;;
65656;SDS011;57397;50.096;14.404;2023-07-29T09:33:56;16.27;;;4.63;;
65656;SDS011;57397;50.096;14.404;2023-07-29T09:36:26;10.00;;;3.17;;
65656;SDS011;57397;50.096;14.404;2023-07-29T09:38:52;6.85;;;2.42;;
65656;SDS011;57397;50.096;14.404;2023-07-29T09:41:19;4.78;;;2.20;;
65656;SDS011;57397;50.096;14.404;2023-07-29T09:43:44;5.03;;;1.52;;
65656;SDS011;57397;50.096;14.404;2023-07-29T09:46:10;5.95;;;1.75;;
65656;SDS011;57397;50.096;14.404;2023-07-29T09:48:35;4.15;;;1.50;;
65656;SDS011;57397;50.096;14.404;2023-07-29T09:51:12;3.83;;;1.40;;
65656;SDS011;57397;50.096;14.404;2023-07-29T09:53:42;2.88;;;1.38;;
65656;SDS011;57397;50.096;14.404;2023-07-29T09:56:08;2.00;;;1.23;;
65656;SDS011;57397;50.096;14.404;2023-07-29T09:58:34;2.17;;;1.30;;
65656;SDS011;57397;50.096;14.404;2023-07-29T10:01:03;2.63;;;1.15;;
65656;SDS011;57397;50.096;14.404;2023-07-29T10:03:29;1.77;;;1.20;;
65656;SDS011;57397;50.096;14.404;2023-07-29T10:05:55;1.48;;;1.00;;
65656;SDS011;57397;50.096;14.404;2023-07-29T10:08:21;1.23;;;0.90;;
65656;SDS011;57397;50.096;14.404;2023-07-29T10:10:48;1.05;;;0.90;;
65656;SDS011;57397;50.096;14.404;2023-07-29T10:13:14;1.13;;;0.90;;
65656;SDS011;57397;50.096;14.404;2023-07-29T10:15:40;1.25;;;0.90;;
65656;SDS011;57397;50.096;14.404;2023-07-29T10:18:06;3.78;;;1.10;;
65656;SDS011;57397;50.096;14.404;2023-07-29T10:20:32;1.80;;;0.90;;
65656;SDS011;57397;50.096;14.404;2023-07-29T10:22:59;1.63;;;0.90;;
65656;SDS011;57397;50.096;14.404;2023-07-29T10:25:25;1.23;;;0.85;;
65656;SDS011;57397;50.096;14.404;2023-07-29T10:28:06;1.45;;;0.80;;
65656;SDS011;57397;50.096;14.404;2023-07-29T10:30:33;2.20;;;1.00;;
65656;SDS011;57397;50.096;14.404;2023-07-29T10:33:01;2.42;;;0.90;;
65656;SDS011;57397;50.096;14.404;2023-07-29T10:35:27;2.28;;;1.10;;
65656;SDS011;57397;50.096;14.404;2023-07-29T10:37:53;3.33;;;1.00;;
65656;SDS011;57397;50.096;14.404;2023-07-29T10:40:19;1.60;;;0.93;;
65656;SDS011;57397;50.096;14.404;2023-07-29T10:43:01;2.05;;;0.90;;
65656;SDS011;57397;50.096;14.404;2023-07-29T10:45:35;5.88;;;1.10;;
65656;SDS011;57397;50.096;14.404;2023-07-29T10:48:05;5.32;;;1.00;;
65656;SDS011;57397;50.096;14.404;2023-07-29T10:50:50;2.38;;;1.08;;
65656;SDS011;57397;50.096;14.404;2023-07-29T10:53:32;4.13;;;1.00;;
65656;SDS011;57397;50.096;14.404;2023-07-29T10:55:57;2.75;;;1.02;;
65656;SDS011;57397;50.096;14.404;2023-07-29T10:58:23;3.75;;;1.13;;
65656;SDS011;57397;50.096;14.404;2023-07-29T11:00:49;1.40;;;0.90;;
65656;SDS011;57397;50.096;14.404;2023-07-29T11:03:15;2.65;;;0.90;;
65656;SDS011;57397;50.096;14.404;2023-07-29T11:05:45;4.68;;;1.00;;
65656;SDS011;57397;50.096;14.404;2023-07-29T11:08:19;2.20;;;0.80;;
65656;SDS011;57397;50.096;14.404;2023-07-29T11:10:57;3.72;;;0.80;;
65656;SDS011;57397;50.096;14.404;2023-07-29T11:13:28;1.88;;;1.00;;
65656;SDS011;57397;50.096;14.404;2023-07-29T11:15:55;1.27;;;0.90;;
65656;SDS011;57397;50.096;14.404;2023-07-29T11:18:23;2.30;;;0.85;;
65656;SDS011;57397;50.096;14.404;2023-07-29T11:20:51;1.65;;;1.00;;
65656;SDS011;57397;50.096;14.404;2023-07-29T11:23:19;1.38;;;1.00;;
65656;SDS011;57397;50.096;14.404;2023-07-29T11:25:45;1.30;;;1.00;;
65656;SDS011;57397;50.096;14.404;2023-07-29T11:28:10;1.20;;;0.90;;
65656;SDS011;57397;50.096;14.404;2023-07-29T11:30:38;2.95;;;1.20;;
65656;SDS011;57397;50.096;14.404;2023-07-29T11:33:04;1.38;;;0.90;;
65656;SDS011;57397;50.096;14.404;2023-07-29T11:35:31;1.85;;;1.15;;
65656;SDS011;57397;50.096;14.404;2023-07-29T11:37:57;1.00;;;0.85;;
65656;SDS011;57397;50.096;14.404;2023-07-29T11:40:23;1.52;;;1.00;;
65656;SDS011;57397;50.096;14.404;2023-07-29T11:42:49;1.85;;;1.20;;
65656;SDS011;57397;50.096;14.404;2023-07-29T11:45:16;2.08;;;1.15;;
65656;SDS011;57397;50.096;14.404;2023-07-29T11:47:42;1.75;;;1.00;;
65656;SDS011;57397;50.096;14.404;2023-07-29T11:50:08;1.35;;;0.95;;
65656;SDS011;57397;50.096;14.404;2023-07-29T11:52:35;1.77;;;1.10;;
65656;SDS011;57397;50.096;14.404;2023-07-29T11:55:03;1.25;;;0.82;;
65656;SDS011;57397;50.096;14.404;2023-07-29T11:57:30;1.80;;;1.45;;
65656;SDS011;57397;50.096;14.404;2023-07-29T11:59:56;3.35;;;1.70;;
65656;SDS011;57397;50.096;14.404;2023-07-29T12:02:21;2.22;;;1.70;;
65656;SDS011;57397;50.096;14.404;2023-07-29T12:04:49;2.20;;;2.00;;
65656;SDS011;57397;50.096;14.404;2023-07-29T12:07:16;3.58;;;2.50;;
65656;SDS011;57397;50.096;14.404;2023-07-29T12:09:42;3.60;;;2.85;;
65656;SDS011;57397;50.096;14.404;2023-07-29T12:12:09;3.42;;;2.67;;
65656;SDS011;57397;50.096;14.404;2023-07-29T12:14:34;2.20;;;2.00;;
65656;SDS011;57397;50.096;14.404;2023-07-29T12:17:01;2.50;;;1.88;;
65656;SDS011;57397;50.096;14.404;2023-07-29T12:19:35;2.03;;;1.83;;
65656;SDS011;57397;50.096;14.404;2023-07-29T12:22:02;2.45;;;1.60;;
65656;SDS011;57397;50.096;14.404;2023-07-29T12:24:32;1.80;;;1.60;;
65656;SDS011;57397;50.096;14.404;2023-07-29T12:26:58;2.15;;;1.60;;
65656;SDS011;57397;50.096;14.404;2023-07-29T12:29:24;3.67;;;1.50;;
65656;SDS011;57397;50.096;14.404;2023-07-29T12:31:57;2.08;;;1.40;;
65656;SDS011;57397;50.096;14.404;2023-07-29T12:34:25;1.45;;;1.10;;
65656;SDS011;57397;50.096;14.404;2023-07-29T12:36:55;1.90;;;1.30;;
65656;SDS011;57397;50.096;14.404;2023-07-29T12:39:25;2.00;;;1.20;;
65656;SDS011;57397;50.096;14.404;2023-07-29T12:41:53;2.00;;;1.15;;
65656;SDS011;57397;50.096;14.404;2023-07-29T12:44:22;1.70;;;1.13;;
65656;SDS011;57397;50.096;14.404;2023-07-29T12:46:52;1.30;;;1.13;;
65656;SDS011;57397;50.096;14.404;2023-07-29T12:49:17;1.70;;;1.27;;
65656;SDS011;57397;50.096;14.404;2023-07-29T12:51:43;1.52;;;1.00;;
65656;SDS011;57397;50.096;14.404;2023-07-29T12:54:09;1.73;;;1.23;;
65656;SDS011;57397;50.096;14.404;2023-07-29T12:56:34;1.10;;;0.80;;
65656;SDS011;57397;50.096;14.404;2023-07-29T12:59:00;1.60;;;1.10;;
65656;SDS011;57397;50.096;14.404;2023-07-29T13:01:26;1.15;;;0.90;;
65656;SDS011;57397;50.096;14.404;2023-07-29T13:03:53;1.48;;;0.98;;
65656;SDS011;57397;50.096;14.404;2023-07-29T13:06:19;1.20;;;0.90;;
65656;SDS011;57397;50.096;14.404;2023-07-29T13:08:45;1.70;;;0.90;;
65656;SDS011;57397;50.096;14.404;2023-07-29T13:11:12;1.13;;;0.90;;
65656;SDS011;57397;50.096;14.404;2023-07-29T13:13:38;1.92;;;0.90;;
65656;SDS011;57397;50.096;14.404;2023-07-29T13:16:04;1.13;;;0.82;;
65656;SDS011;57397;50.096;14.404;2023-07-29T13:18:32;1.00;;;0.77;;
65656;SDS011;57397;50.096;14.404;2023-07-29T13:21:02;1.58;;;0.88;;
65656;SDS011;57397;50.096;14.404;2023-07-29T13:23:28;1.17;;;0.80;;
65656;SDS011;57397;50.096;14.404;2023-07-29T13:25:55;1.10;;;0.88;;
65656;SDS011;57397;50.096;14.404;2023-07-29T13:28:21;1.30;;;1.00;;
65656;SDS011;57397;50.096;14.404;2023-07-29T13:30:46;1.63;;;0.70;;
65656;SDS011;57397;50.096;14.404;2023-07-29T13:33:12;1.67;;;1.00;;
65656;SDS011;57397;50.096;14.404;2023-07-29T13:35:38;1.10;;;0.75;;
65656;SDS011;57397;50.096;14.404;2023-07-29T13:38:03;0.90;;;0.80;;
65656;SDS011;57397;50.096;14.404;2023-07-29T13:40:29;1.23;;;0.80;;
65656;SDS011;57397;50.096;14.404;2023-07-29T13:42:55;1.30;;;0.90;;
65656;SDS011;57397;50.096;14.404;2023-07-29T13:45:20;1.15;;;0.70;;
65656;SDS011;57397;50.096;14.404;2023-07-29T13:47:47;0.95;;;0.70;;
65656;SDS011;57397;50.096;14.404;2023-07-29T13:50:16;1.42;;;0.85;;
65656;SDS011;57397;50.096;14.404;2023-07-29T13:52:42;1.73;;;0.73;;
65656;SDS011;57397;50.096;14.404;2023-07-29T13:55:07;1.65;;;0.80;;
65656;SDS011;57397;50.096;14.404;2023-07-29T13:57:33;1.10;;;0.73;;
65656;SDS011;57397;50.096;14.404;2023-07-29T13:59:59;0.82;;;0.63;;
65656;SDS011;57397;50.096;14.404;2023-07-29T14:02:24;1.83;;;0.80;;
65656;SDS011;57397;50.096;14.404;2023-07-29T14:04:57;0.90;;;0.70;;
65656;SDS011;57397;50.096;14.404;2023-07-29T14:07:28;1.60;;;0.65;;
65656;SDS011;57397;50.096;14.404;2023-07-29T14:09:54;1.48;;;0.80;;
65656;SDS011;57397;50.096;14.404;2023-07-29T14:12:20;1.42;;;0.88;;
65656;SDS011;57397;50.096;14.404;2023-07-29T14:14:45;0.98;;;0.80;;
65656;SDS011;57397;50.096;14.404;2023-07-29T14:17:11;1.00;;;0.70;;
65656;SDS011;57397;50.096;14.404;2023-07-29T14:19:36;1.23;;;0.70;;
65656;SDS011;57397;50.096;14.404;2023-07-29T14:22:02;1.65;;;0.70;;
65656;SDS011;57397;50.096;14.404;2023-07-29T14:24:28;3.17;;;0.77;;
65656;SDS011;57397;50.096;14.404;2023-07-29T14:26:53;1.95;;;0.80;;
65656;SDS011;57397;50.096;14.404;2023-07-29T14:29:19;3.17;;;1.02;;
65656;SDS011;57397;50.096;14.404;2023-07-29T14:31:44;1.15;;;0.73;;